Time;durP1;ratioP1;P1;durP2;ratioP2;P2;SDS_P1;SDS_P2;PMS_P1;PMS_P2;Temp;Humidity;BMP_temperature;BMP_pressure;BME280_temperature;BME280_humidity;BME280_pressure;Samples;Min_cycle;Max_cycle;Signal;HPM_P1;HPM_P2
2023/03/18 00:01:03;;;;;;;15.03;9.10;;;;;;;4.46;84.53;63392.34;5013511;28;20243;-58
2023/03/18 00:03:31;;;;;;;17.97;8.53;;;;;;;4.59;84.35;63406.47;5031239;28;20193;-58
2023/03/18 00:06:08;;;;;;;18.40;9.10;;;;;;;4.56;84.57;63403.78;5030974;28;20186;-58
2023/03/18 00:08:34;;;;;;;14.50;8.33;;;;;;;4.54;83.61;63399.09;5030978;28;20200;-58
2023/03/18 00:11:00;;;;;;;15.23;8.27;;;;;;;4.51;83.99;63395.81;5030991;28;20198;-56
2023/03/18 00:13:27;;;;;;;23.80;8.53;;;;;;;4.49;82.73;63395.59;5030904;28;20226;-55
2023/03/18 00:15:53;;;;;;;17.23;8.67;;;;;;;4.30;82.42;63372.44;5030679;28;20224;-56
2023/03/18 00:18:19;;;;;;;16.27;8.20;;;;;;;4.41;81.40;63384.94;5030016;28;20288;-55
2023/03/18 00:20:44;;;;;;;24.43;9.07;;;;;;;4.42;80.81;63388.00;5030743;28;20630;-58
2023/03/18 00:23:10;;;;;;;12.20;8.43;;;;;;;4.41;80.40;63387.44;5031047;28;20204;-61
2023/03/18 00:25:37;;;;;;;14.00;7.33;;;;;;;4.36;80.53;63383.97;5030865;28;20240;-55
2023/03/18 00:28:05;;;;;;;15.33;8.07;;;;;;;4.31;80.16;63376.03;5031070;28;20250;-56
2023/03/18 00:30:32;;;;;;;15.73;7.80;;;;;;;4.13;80.79;63357.53;5030874;28;20336;-56
2023/03/18 00:32:58;;;;;;;11.93;7.07;;;;;;;4.02;81.16;63345.06;5012646;28;20664;-54
2023/03/18 00:35:29;;;;;;;12.30;7.40;;;;;;;4.05;80.71;63343.31;5030264;28;20276;-54
2023/03/18 00:37:57;;;;;;;13.63;6.67;;;;;;;4.03;80.36;63346.69;5030743;28;20197;-60
2023/03/18 00:40:28;;;;;;;9.23;5.43;;;;;;;4.09;78.82;63350.69;5012498;28;20230;-55
2023/03/18 00:43:06;;;;;;;10.53;6.33;;;;;;;4.01;79.97;63346.44;5012962;28;20663;-60
2023/03/18 00:45:36;;;;;;;9.87;5.03;;;;;;;3.89;79.03;63331.47;5030494;28;20201;-58
2023/03/18 00:48:02;;;;;;;11.63;5.40;;;;;;;3.77;79.36;63318.41;5030463;28;20201;-60
2023/03/18 00:50:28;;;;;;;6.43;4.73;;;;;;;3.82;79.11;63320.78;5012840;28;20214;-60
2023/03/18 00:52:54;;;;;;;8.40;5.90;;;;;;;3.69;80.24;63309.16;5030323;28;20351;-60
2023/03/18 00:55:19;;;;;;;8.83;5.20;;;;;;;3.55;80.01;63291.47;5030020;28;20222;-60
2023/03/18 00:57:45;;;;;;;8.47;4.57;;;;;;;3.42;79.61;63280.91;5030394;28;20678;-61
2023/03/18 01:00:15;;;;;;;7.23;4.30;;;;;;;3.30;78.97;63264.84;5030194;28;20210;-62
2023/03/18 01:02:41;;;;;;;8.10;5.10;;;;;;;3.09;81.50;63247.56;5031033;28;20197;-55
2023/03/18 01:05:10;;;;;;;7.40;4.60;;;;;;;2.93;82.71;63227.69;5030215;28;20219;-55
2023/03/18 01:07:35;;;;;;;7.00;3.90;;;;;;;2.92;81.44;63226.63;5030179;28;20222;-60
2023/03/18 01:10:01;;;;;;;6.57;4.03;;;;;;;2.84;83.12;63217.38;5030191;28;20258;-59
2023/03/18 01:12:26;;;;;;;6.63;4.20;;;;;;;2.77;83.19;63210.31;5012449;28;20189;-55
2023/03/18 01:14:52;;;;;;;4.47;3.67;;;;;;;2.70;83.37;63202.72;5012110;28;20255;-55
2023/03/18 01:17:17;;;;;;;7.13;3.43;;;;;;;2.70;84.11;63202.19;5030144;28;20191;-60
2023/03/18 01:19:43;;;;;;;7.43;4.20;;;;;;;2.79;84.77;63212.50;5030003;28;20584;-60
2023/03/18 01:22:09;;;;;;;7.43;4.37;;;;;;;2.78;84.03;63210.88;5029934;28;20240;-58
2023/03/18 01:24:35;;;;;;;6.60;3.93;;;;;;;2.73;83.91;63205.97;5029650;28;20259;-58
2023/03/18 01:27:01;;;;;;;8.07;4.50;;;;;;;2.88;84.24;63221.72;5030318;28;20196;-54
2023/03/18 01:29:27;;;;;;;6.00;4.17;;;;;;;2.90;83.90;63223.91;5030462;28;20741;-55
2023/03/18 01:31:53;;;;;;;9.00;4.10;;;;;;;3.09;82.42;63242.06;5033516;28;20278;-55
2023/03/18 01:34:20;;;;;;;7.17;4.70;;;;;;;3.01;83.45;63235.84;5033272;28;20211;-55
2023/03/18 01:36:46;;;;;;;6.83;3.67;;;;;;;3.29;81.01;63269.28;5033387;28;20221;-57
2023/03/18 01:39:13;;;;;;;5.93;4.10;;;;;;;3.25;81.96;63262.44;5033084;28;20210;-55
2023/03/18 01:41:39;;;;;;;5.43;4.13;;;;;;;3.26;79.68;63261.06;5033216;28;20270;-55
2023/03/18 01:44:26;;;;;;;7.63;3.97;;;;;;;3.20;80.78;63254.53;5032892;28;20288;-54
2023/03/18 01:46:53;;;;;;;5.63;3.47;;;;;;;3.09;79.46;63242.56;5032679;28;20211;-57
2023/03/18 01:49:29;;;;;;;6.20;4.13;;;;;;;3.08;80.41;63243.44;5015107;28;20224;-55
2023/03/18 01:52:04;;;;;;;8.83;4.57;;;;;;;2.98;79.75;63230.09;5032939;28;20236;-60
2023/03/18 01:54:35;;;;;;;6.90;3.57;;;;;;;2.80;81.03;63213.59;5032773;28;20235;-56
2023/03/18 01:57:02;;;;;;;5.90;3.70;;;;;;;2.68;80.83;63203.03;5032987;28;20253;-55
2023/03/18 01:59:32;;;;;;;7.63;4.53;;;;;;;2.59;81.42;63195.22;5032733;28;20202;-55
2023/03/18 02:01:57;;;;;;;6.30;4.13;;;;;;;2.66;82.26;63195.91;5032966;28;20194;-55
2023/03/18 02:04:29;;;;;;;6.43;3.70;;;;;;;2.63;81.99;63194.59;5032625;28;20223;-55
2023/03/18 02:06:57;;;;;;;6.90;3.80;;;;;;;2.54;82.21;63185.88;5032631;28;20660;-55
2023/03/18 02:09:22;;;;;;;7.87;4.13;;;;;;;2.46;82.75;63179.16;5040141;22;20305;-55
2023/03/18 02:11:50;;;;;;;6.97;3.57;;;;;;;2.39;84.25;63169.63;5032813;28;20721;-59
2023/03/18 02:14:19;;;;;;;9.40;4.03;;;;;;;2.40;83.39;63170.69;5032921;28;20295;-55
2023/03/18 02:16:58;;;;;;;5.97;3.60;;;;;;;2.65;82.39;63196.75;5032422;28;20193;-55
2023/03/18 02:19:44;;;;;;;6.43;4.10;;;;;;;2.51;82.14;63184.59;5032748;28;20219;-55
2023/03/18 02:22:24;;;;;;;7.57;4.07;;;;;;;2.46;83.18;63176.69;5032505;28;20186;-55
2023/03/18 02:25:12;;;;;;;5.93;3.53;;;;;;;2.25;84.32;63154.44;5032430;28;20233;-55
2023/03/18 02:27:43;;;;;;;5.57;3.57;;;;;;;2.74;81.78;63209.56;5032595;28;20197;-57
2023/03/18 02:30:15;;;;;;;6.83;3.90;;;;;;;2.23;82.92;63154.75;5032285;28;20237;-54
2023/03/18 02:32:42;;;;;;;4.10;3.20;;;;;;;2.25;83.21;63153.88;5032291;28;20198;-55
2023/03/18 02:35:09;;;;;;;5.27;3.43;;;;;;;2.17;83.99;63142.72;5032120;28;20217;-57
2023/03/18 02:37:35;;;;;;;5.20;3.03;;;;;;;1.95;85.54;63121.34;5032576;28;20193;-57
2023/03/18 02:40:17;;;;;;;4.73;3.27;;;;;;;2.01;85.58;63127.84;5014327;28;20210;-58
2023/03/18 02:42:44;;;;;;;5.07;3.53;;;;;;;2.21;85.91;63149.53;5031206;28;20199;-59
2023/03/18 02:45:28;;;;;;;5.67;3.40;;;;;;;2.35;84.91;63164.72;5014358;28;20696;-59
2023/03/18 02:47:57;;;;;;;3.40;2.70;;;;;;;2.24;85.17;63153.34;5032467;28;20190;-58
2023/03/18 02:50:23;;;;;;;5.77;3.50;;;;;;;2.35;84.80;63165.28;5032045;28;20245;-59
2023/03/18 02:52:49;;;;;;;5.30;3.60;;;;;;;2.05;86.04;63135.22;5032341;28;20265;-58
2023/03/18 02:55:14;;;;;;;4.73;3.07;;;;;;;1.93;85.51;63119.16;5014323;28;20244;-59
2023/03/18 02:57:40;;;;;;;5.03;2.97;;;;;;;1.63;87.67;63090.22;5014371;28;20209;-60
2023/03/18 03:00:07;;;;;;;5.77;3.33;;;;;;;1.54;89.50;63079.91;5032149;28;20213;-59
2023/03/18 03:02:32;;;;;;;6.90;3.87;;;;;;;1.47;90.61;63070.38;5032163;28;20388;-59
2023/03/18 03:04:57;;;;;;;6.67;3.97;;;;;;;1.48;91.97;63073.38;5032002;28;20776;-60
2023/03/18 03:07:26;;;;;;;5.10;3.17;;;;;;;1.80;90.38;63105.06;5032019;28;20183;-58
2023/03/18 03:09:52;;;;;;;4.67;3.03;;;;;;;1.97;89.02;63123.50;5032030;28;20237;-59
2023/03/18 03:12:18;;;;;;;6.53;3.13;;;;;;;1.98;89.92;63124.59;5031868;28;20576;-58
2023/03/18 03:14:43;;;;;;;5.57;3.63;;;;;;;2.04;89.06;63131.09;5031585;28;20644;-58
2023/03/18 03:17:09;;;;;;;5.67;3.23;;;;;;;2.17;88.20;63142.72;5031546;28;20305;-64
2023/03/18 03:19:35;;;;;;;5.07;3.43;;;;;;;2.17;88.73;63145.75;5031504;28;20269;-59
2023/03/18 03:22:00;;;;;;;6.53;3.57;;;;;;;2.25;87.23;63153.88;5031780;28;20605;-58
2023/03/18 03:24:26;;;;;;;5.97;3.40;;;;;;;2.28;86.19;63155.19;5031823;28;20588;-59
2023/03/18 03:26:52;;;;;;;5.73;3.53;;;;;;;2.27;85.91;63156.59;5030516;28;20232;-58
2023/03/18 03:29:17;;;;;;;3.70;2.63;;;;;;;2.13;87.02;63141.41;5013727;28;20241;-57
2023/03/18 03:31:44;;;;;;;6.43;4.13;;;;;;;2.05;85.64;63132.19;5013638;28;20245;-58
2023/03/18 03:34:09;;;;;;;6.47;3.13;;;;;;;1.99;87.42;63128.16;5031553;28;20605;-59
2023/03/18 03:36:35;;;;;;;3.80;3.10;;;;;;;1.99;86.78;63126.22;5031417;28;20319;-58
2023/03/18 03:39:01;;;;;;;4.70;2.93;;;;;;;1.90;87.44;63120.88;5031426;28;20218;-59
2023/03/18 03:41:27;;;;;;;8.27;4.10;;;;;;;1.68;88.55;63095.06;5031184;28;20215;-60
2023/03/18 03:43:53;;;;;;;3.93;3.37;;;;;;;1.65;89.12;63089.91;5031125;28;20209;-59
2023/03/18 03:46:19;;;;;;;3.63;2.80;;;;;;;1.73;89.69;63097.47;5031264;28;20563;-58
2023/03/18 03:48:44;;;;;;;5.87;3.50;;;;;;;1.81;89.19;63106.69;5031424;28;20198;-58
2023/03/18 03:51:10;;;;;;;4.50;3.00;;;;;;;1.80;88.48;63108.09;5031159;28;20734;-59
2023/03/18 03:53:35;;;;;;;4.83;3.30;;;;;;;1.84;88.84;63109.94;5031106;28;20198;-57
2023/03/18 03:56:02;;;;;;;4.57;3.33;;;;;;;1.81;89.19;63106.16;5031003;28;20214;-57
2023/03/18 03:58:28;;;;;;;4.70;3.10;;;;;;;1.75;89.68;63100.19;5030974;28;20291;-58
2023/03/18 04:00:54;;;;;;;5.07;3.37;;;;;;;1.91;89.64;63117.00;5013242;28;20197;-58
2023/03/18 04:03:20;;;;;;;4.30;2.90;;;;;;;2.14;87.47;63141.97;5013510;28;20202;-59
2023/03/18 04:05:45;;;;;;;6.50;3.87;;;;;;;2.33;87.08;63163.09;5030867;28;20206;-58
2023/03/18 04:08:11;;;;;;;4.27;2.93;;;;;;;2.43;86.44;63170.94;5031018;28;20195;-58
2023/03/18 04:10:37;;;;;;;4.37;3.00;;;;;;;2.53;85.98;63184.81;5030748;28;20226;-57
2023/03/18 04:13:04;;;;;;;5.33;3.47;;;;;;;2.67;84.56;63196.97;5012967;28;20289;-60
2023/03/18 04:15:29;;;;;;;4.43;3.10;;;;;;;2.60;84.85;63194.34;5030554;28;20715;-59
2023/03/18 04:17:54;;;;;;;5.73;2.73;;;;;;;2.61;83.68;63192.94;5030710;28;20190;-57
2023/03/18 04:20:20;;;;;;;4.07;2.87;;;;;;;2.72;83.28;63202.41;5030577;28;20209;-60
2023/03/18 04:22:46;;;;;;;4.30;2.80;;;;;;;2.67;83.64;63199.47;5030570;28;20194;-57
2023/03/18 04:25:11;;;;;;;3.97;2.90;;;;;;;2.60;83.37;63191.88;5030497;28;20209;-57
2023/03/18 04:27:38;;;;;;;5.03;3.40;;;;;;;2.69;82.24;63201.63;5030555;28;20502;-58
2023/03/18 04:30:07;;;;;;;6.37;3.13;;;;;;;2.60;82.63;63191.88;5030582;28;20292;-58
2023/03/18 04:32:33;;;;;;;5.97;3.27;;;;;;;2.32;81.76;63164.50;5030283;28;20197;-58
2023/03/18 04:34:59;;;;;;;8.27;4.00;;;;;;;2.18;83.72;63149.31;5030412;28;20229;-57
2023/03/18 04:37:24;;;;;;;6.23;3.50;;;;;;;2.06;84.27;63133.28;5038155;22;20614;-57
2023/03/18 04:39:50;;;;;;;4.80;3.40;;;;;;;1.78;86.31;63100.44;5030255;28;20218;-58
2023/03/18 04:42:16;;;;;;;6.07;3.60;;;;;;;1.52;88.32;63075.78;5012575;28;20198;-58
2023/03/18 04:44:42;;;;;;;9.07;3.80;;;;;;;1.39;89.63;63063.66;5012572;28;20255;-58
2023/03/18 04:47:08;;;;;;;6.07;4.13;;;;;;;1.41;90.53;63063.31;5030480;28;20598;-58
2023/03/18 04:49:34;;;;;;;6.87;3.90;;;;;;;1.45;90.48;63067.66;5030314;28;20217;-57
2023/03/18 04:52:00;;;;;;;7.67;4.13;;;;;;;1.50;89.92;63071.13;5030546;28;20216;-58
2023/03/18 04:54:27;;;;;;;8.23;5.53;;;;;;;1.35;91.69;63059.31;5030140;28;20270;-58
2023/03/18 04:56:53;;;;;;;9.83;6.30;;;;;;;1.34;92.77;63056.28;5030310;28;20401;-58
2023/03/18 04:59:18;;;;;;;8.07;5.97;;;;;;;1.63;91.13;63087.19;5030136;28;20316;-59
2023/03/18 05:01:44;;;;;;;11.23;6.07;;;;;;;1.65;91.45;63089.91;5030326;28;20554;-58
2023/03/18 05:04:09;;;;;;;12.87;6.40;;;;;;;1.82;90.78;63110.25;5030128;28;20212;-58
2023/03/18 05:06:36;;;;;;;8.77;5.90;;;;;;;1.91;90.42;63117.00;5033808;28;20277;-58
2023/03/18 05:09:07;;;;;;;13.93;5.60;;;;;;;1.74;91.18;63099.09;5033710;28;20309;-59
2023/03/18 05:11:33;;;;;;;10.47;5.93;;;;;;;1.96;90.89;63124.91;5033685;28;20198;-58
2023/03/18 05:13:59;;;;;;;8.93;5.50;;;;;;;2.08;89.51;63138.47;5015639;28;20251;-60
2023/03/18 05:16:25;;;;;;;7.43;4.47;;;;;;;2.06;89.35;63138.25;5033558;28;20218;-58
2023/03/18 05:18:51;;;;;;;9.07;5.70;;;;;;;2.17;88.61;63145.19;5033390;28;20220;-58
2023/03/18 05:21:16;;;;;;;7.53;4.07;;;;;;;2.10;88.85;63137.63;5033425;28;20201;-59
2023/03/18 05:23:42;;;;;;;7.40;4.30;;;;;;;2.04;90.21;63133.59;5033434;28;20198;-59
2023/03/18 05:26:16;;;;;;;5.07;3.40;;;;;;;2.17;87.64;63145.75;5033555;28;20573;-59
2023/03/18 05:28:41;;;;;;;6.23;3.83;;;;;;;2.23;87.33;63152.25;5033390;28;20203;-57
2023/03/18 05:31:07;;;;;;;4.97;3.60;;;;;;;2.23;86.32;63147.28;5033367;28;20668;-59
2023/03/18 05:33:32;;;;;;;4.60;2.97;;;;;;;2.28;84.88;63157.66;5033695;28;20277;-59
2023/03/18 05:35:58;;;;;;;5.50;3.00;;;;;;;2.07;83.66;63134.34;5033693;28;20710;-59
2023/03/18 05:38:24;;;;;;;4.23;2.80;;;;;;;2.05;84.56;63132.19;5032138;28;20198;-58
2023/03/18 05:40:50;;;;;;;4.90;2.93;;;;;;;2.39;82.55;63171.56;5033239;28;20795;-60
2023/03/18 05:43:15;;;;;;;5.83;3.93;;;;;;;2.41;83.61;63169.31;5033509;28;20222;-58
2023/03/18 05:45:41;;;;;;;5.97;3.23;;;;;;;2.69;82.41;63199.16;5033039;28;20241;-58
2023/03/18 05:48:07;;;;;;;6.07;3.43;;;;;;;3.04;80.70;63234.13;5033297;28;20278;-59
2023/03/18 05:50:39;;;;;;;6.50;3.03;;;;;;;2.96;80.74;63230.97;5033011;28;20684;-57
2023/03/18 05:53:05;;;;;;;4.80;3.33;;;;;;;3.22;81.84;63259.19;5032969;28;20225;-58
2023/03/18 05:55:31;;;;;;;5.23;2.67;;;;;;;3.43;79.86;63281.47;5015080;28;20219;-59
2023/03/18 05:57:59;;;;;;;8.13;3.37;;;;;;;3.50;79.31;63288.50;5033398;28;20195;-58
2023/03/18 06:00:27;;;;;;;9.27;3.77;;;;;;;3.66;79.45;63303.97;5032622;28;20227;-58
2023/03/18 06:02:53;;;;;;;5.47;3.30;;;;;;;3.69;80.39;63309.16;5033178;28;20300;-57
2023/03/18 06:05:20;;;;;;;6.93;3.80;;;;;;;3.78;79.06;63316.44;5032912;28;20222;-58
2023/03/18 06:07:53;;;;;;;6.20;3.33;;;;;;;3.88;79.53;63329.84;5032945;28;20207;-59
2023/03/18 06:10:19;;;;;;;6.93;3.60;;;;;;;3.90;79.73;63330.03;5032682;28;20676;-57
2023/03/18 06:12:44;;;;;;;6.87;3.70;;;;;;;3.94;79.12;63333.88;5032586;28;20292;-61
2023/03/18 06:15:12;;;;;;;7.00;3.80;;;;;;;4.08;78.81;63351.56;5032565;28;20216;-60
2023/03/18 06:17:38;;;;;;;8.07;3.90;;;;;;;4.10;78.98;63354.28;5032947;28;20186;-60
2023/03/18 06:20:10;;;;;;;8.37;4.23;;;;;;;4.09;80.28;63355.13;5032543;28;20217;-60
2023/03/18 06:22:35;;;;;;;7.63;4.23;;;;;;;4.24;77.52;63372.00;5033186;28;20637;-61
2023/03/18 06:25:03;;;;;;;5.73;3.77;;;;;;;4.22;77.14;63369.28;5032597;28;20214;-61
2023/03/18 06:27:29;;;;;;;6.90;4.57;;;;;;;4.24;78.35;63366.47;5032776;28;20183;-62
2023/03/18 06:29:54;;;;;;;8.50;4.70;;;;;;;4.35;79.05;63378.44;5032708;28;20244;-61
2023/03/18 06:32:20;;;;;;;13.87;7.57;;;;;;;4.46;79.39;63392.91;5032786;28;20196;-56
2023/03/18 06:34:46;;;;;;;15.83;8.43;;;;;;;4.05;82.35;63345.81;5014595;28;20297;-56
2023/03/18 06:37:11;;;;;;;15.20;9.23;;;;;;;4.12;81.98;63356.44;5031229;28;20723;-55
2023/03/18 06:39:37;;;;;;;18.13;10.53;;;;;;;3.91;82.65;63333.63;5032320;28;20308;-55
2023/03/18 06:42:03;;;;;;;14.83;8.83;;;;;;;4.00;83.20;63343.41;5014875;28;20281;-56
2023/03/18 06:44:29;;;;;;;18.80;10.00;;;;;;;3.59;84.49;63295.81;5032097;28;20216;-58
2023/03/18 06:46:54;;;;;;;18.63;10.30;;;;;;;3.48;86.32;63283.84;5032450;28;20199;-55
2023/03/18 06:49:20;;;;;;;13.20;8.17;;;;;;;3.89;83.17;63330.91;5030911;28;20213;-56
2023/03/18 06:51:47;;;;;;;16.07;8.77;;;;;;;3.79;83.43;63317.53;5032276;28;20674;-56
2023/03/18 06:54:13;;;;;;;26.73;11.27;;;;;;;3.85;83.24;63329.59;5032115;28;20317;-56
2023/03/18 06:56:40;;;;;;;10.90;7.23;;;;;;;3.85;82.40;63324.63;5031949;28;20224;-56
2023/03/18 06:59:09;;;;;;;14.43;9.50;;;;;;;3.85;84.23;63326.56;5031965;28;20244;-57
2023/03/18 07:01:35;;;;;;;18.63;9.70;;;;;;;4.26;83.36;63371.16;5032226;28;20194;-56
2023/03/18 07:04:01;;;;;;;14.33;7.90;;;;;;;4.61;81.41;63406.16;5032130;28;20217;-55
2023/03/18 07:06:29;;;;;;;14.07;8.30;;;;;;;4.74;79.99;63420.84;5014231;28;20255;-56
2023/03/18 07:08:56;;;;;;;13.77;8.37;;;;;;;4.96;80.26;63449.78;5031965;28;20213;-55
2023/03/18 07:11:24;;;;;;;18.13;9.27;;;;;;;4.99;81.65;63448.03;5014145;28;20189;-56
2023/03/18 07:13:51;;;;;;;18.83;10.40;;;;;;;5.04;81.64;63453.50;5031742;28;20232;-56
2023/03/18 07:16:18;;;;;;;15.90;10.27;;;;;;;4.99;80.85;63448.03;5031607;28;20221;-55
2023/03/18 07:18:43;;;;;;;20.33;10.97;;;;;;;5.17;81.65;63469.59;5031660;28;20212;-56
2023/03/18 07:21:10;;;;;;;20.57;12.47;;;;;;;5.24;81.08;63474.16;5031804;28;20596;-58
2023/03/18 07:23:35;;;;;;;18.00;11.63;;;;;;;5.39;80.26;63496.06;5030391;28;20186;-55
2023/03/18 07:26:01;;;;;;;20.10;12.57;;;;;;;5.48;81.31;63500.84;5031901;28;20188;-56
2023/03/18 07:28:27;;;;;;;22.27;14.13;;;;;;;5.51;82.15;63504.13;5031355;28;20193;-56
2023/03/18 07:30:53;;;;;;;22.73;15.53;;;;;;;5.42;82.56;63496.81;5031814;28;20715;-55
2023/03/18 07:33:18;;;;;;;23.47;15.20;;;;;;;5.24;81.88;63474.16;5031749;28;20189;-56
2023/03/18 07:35:44;;;;;;;26.33;15.77;;;;;;;5.59;82.02;63512.84;5031537;28;20283;-60
2023/03/18 07:38:11;;;;;;;26.03;16.47;;;;;;;5.55;81.15;63508.47;5031952;28;20192;-61
2023/03/18 07:40:37;;;;;;;24.87;15.43;;;;;;;5.59;81.63;63517.28;5031449;28;20288;-60
2023/03/18 07:43:04;;;;;;;28.37;15.50;;;;;;;5.34;83.07;63487.56;5031690;28;20276;-58
2023/03/18 07:45:29;;;;;;;26.53;15.23;;;;;;;5.33;83.77;63486.47;5013528;28;20212;-58
2023/03/18 07:47:55;;;;;;;24.23;15.07;;;;;;;5.35;85.24;63486.16;5031691;28;20202;-59
2023/03/18 07:50:20;;;;;;;24.83;15.47;;;;;;;5.38;83.49;63489.97;5031278;28;20260;-58
2023/03/18 07:52:46;;;;;;;26.00;14.43;;;;;;;5.48;82.88;63497.78;5013588;28;20609;-58
2023/03/18 07:55:12;;;;;;;25.77;14.33;;;;;;;5.34;81.02;63488.09;5031130;28;20351;-58
2023/03/18 07:57:38;;;;;;;21.17;14.37;;;;;;;5.20;82.13;63472.31;5031339;28;20371;-58
2023/03/18 08:00:06;;;;;;;23.37;14.20;;;;;;;5.24;84.30;63476.66;5030991;28;20722;-58
2023/03/18 08:02:33;;;;;;;25.33;14.13;;;;;;;5.34;86.15;63487.56;5031523;28;20190;-56
2023/03/18 08:04:59;;;;;;;24.03;14.27;;;;;;;5.53;87.25;63505.75;5031070;28;20300;-56
2023/03/18 08:07:24;;;;;;;23.33;13.97;;;;;;;5.96;85.59;63555.09;5030936;28;20189;-54
2023/03/18 08:09:49;;;;;;;20.23;12.93;;;;;;;6.06;82.06;63565.44;5030926;28;20593;-56
2023/03/18 08:12:16;;;;;;;19.80;12.60;;;;;;;5.88;82.51;63546.38;5013642;28;20197;-55
2023/03/18 08:14:42;;;;;;;24.30;12.90;;;;;;;5.84;84.11;63542.56;5031279;28;20221;-56
2023/03/18 08:17:08;;;;;;;20.17;13.17;;;;;;;5.98;82.18;63554.25;5013689;28;20307;-57
2023/03/18 08:19:34;;;;;;;22.37;13.87;;;;;;;6.02;82.97;63561.63;5031452;28;20217;-62
2023/03/18 08:22:00;;;;;;;21.50;14.17;;;;;;;6.20;82.71;63578.72;5030310;28;20198;-57
2023/03/18 08:24:25;;;;;;;24.00;14.50;;;;;;;6.49;82.82;63612.84;5031178;28;20259;-60
2023/03/18 08:26:51;;;;;;;30.57;14.67;;;;;;;6.67;81.04;63629.97;5031385;28;20560;-58
2023/03/18 08:29:16;;;;;;;21.03;13.37;;;;;;;6.72;80.83;63635.44;5031221;28;20242;-56
2023/03/18 08:31:42;;;;;;;21.50;12.97;;;;;;;6.96;78.24;63660.50;5031428;28;20704;-55
2023/03/18 08:34:07;;;;;;;19.80;11.00;;;;;;;8.11;100.00;63782.91;5031089;28;20719;-56
2023/03/18 08:36:33;;;;;;;20.23;11.00;;;;;;;9.78;100.00;63967.38;5031140;28;20541;-56
2023/03/18 08:38:59;;;;;;;21.03;12.03;;;;;;;11.16;100.00;64117.34;5012538;28;20260;-55
2023/03/18 08:41:25;;;;;;;21.80;12.10;;;;;;;12.51;100.00;64264.22;5030710;28;20656;-57
2023/03/18 08:43:52;;;;;;;20.67;11.80;;;;;;;13.59;100.00;64382.22;5031069;28;20263;-56
2023/03/18 08:46:17;;;;;;;15.50;11.40;;;;;;;14.46;90.01;64477.25;5030908;28;20205;-56
2023/03/18 08:48:43;;;;;;;15.77;10.63;;;;;;;15.04;82.76;64535.91;5030963;28;20194;-57
2023/03/18 08:51:13;;;;;;;15.57;10.77;;;;;;;14.80;70.27;64512.06;5030859;28;20186;-56
2023/03/18 08:53:39;;;;;;;19.05;10.18;;;;;;;14.13;75.53;64443.50;5030796;28;20189;-56
2023/03/18 08:56:06;;;;;;;14.10;9.07;;;;;;;14.11;78.75;64438.75;5030664;28;20730;-58
2023/03/18 08:58:32;;;;;;;13.63;8.97;;;;;;;14.72;72.40;64505.25;5031214;28;20264;-61
2023/03/18 09:00:58;;;;;;;15.65;10.27;;;;;;;15.15;62.56;64549.97;5030716;28;20194;-60
2023/03/18 09:03:23;;;;;;;11.50;8.47;;;;;;;15.55;58.03;64596.56;5031035;28;20550;-56
2023/03/18 09:05:51;;;;;;;10.63;8.10;;;;;;;15.95;62.50;64637.47;5030835;28;20297;-55
2023/03/18 09:08:16;;;;;;;13.43;9.02;;;;;;;15.86;53.97;64627.56;5030735;28;20204;-56
2023/03/18 09:10:44;;;;;;;15.27;10.30;;;;;;;15.60;46.37;64601.50;5030803;28;20210;-59
2023/03/18 09:13:09;;;;;;;15.60;9.75;;;;;;;14.19;47.15;64447.56;5030446;28;20194;-56
2023/03/18 09:15:35;;;;;;;15.82;9.60;;;;;;;13.00;50.15;64315.47;5030454;28;20264;-56
2023/03/18 09:18:01;;;;;;;14.98;9.35;;;;;;;12.89;50.47;64307.91;5030836;28;20222;-56
2023/03/18 09:20:27;;;;;;;11.17;7.90;;;;;;;12.52;49.76;64265.88;5030386;28;20240;-57
2023/03/18 09:22:52;;;;;;;9.47;6.83;;;;;;;12.44;50.56;64256.56;5030858;28;20607;-60
2023/03/18 09:25:18;;;;;;;10.37;6.67;;;;;;;12.24;50.99;64232.09;5030457;28;20213;-57
2023/03/18 09:27:44;;;;;;;10.27;7.50;;;;;;;12.50;50.75;64260.63;5030346;28;20209;-62
2023/03/18 09:30:10;;;;;;;8.63;5.87;;;;;;;12.61;49.04;64275.75;5030629;28;20198;-57
2023/03/18 09:32:36;;;;;;;10.13;6.37;;;;;;;12.62;48.72;64276.31;5030567;28;20671;-56
2023/03/18 09:35:02;;;;;;;9.93;6.60;;;;;;;12.08;47.53;64217.09;5030261;28;20203;-59
2023/03/18 09:37:27;;;;;;;8.50;6.60;;;;;;;12.04;49.18;64212.72;5012626;28;20194;-59
2023/03/18 09:39:53;;;;;;;8.00;5.50;;;;;;;11.73;47.88;64182.34;5030207;28;20201;-61
2023/03/18 09:42:40;;;;;;;8.43;4.77;;;;;;;12.10;47.88;64219.28;5030365;28;20197;-57
2023/03/18 09:45:22;;;;;;;5.43;4.63;;;;;;;12.01;47.55;64211.94;5030072;28;20243;-56
2023/03/18 09:47:57;;;;;;;5.93;4.43;;;;;;;12.41;47.88;64251.28;5030389;28;20737;-56
2023/03/18 09:50:30;;;;;;;14.50;10.17;;;;;;;11.69;48.49;64175.44;5030430;28;20202;-56
2023/03/18 09:53:15;;;;;;;5.47;4.17;;;;;;;12.56;46.51;64270.25;5033828;28;20229;-62
2023/03/18 09:55:45;;;;;;;5.53;4.13;;;;;;;12.90;46.29;64303.94;5015578;28;20699;-61
2023/03/18 09:58:40;;;;;;;5.07;3.83;;;;;;;12.95;45.40;64309.97;5033567;28;20269;-59
2023/03/18 10:01:10;;;;;;;5.43;3.43;;;;;;;13.24;44.14;64343.78;5007804;28;20198;-60
2023/03/18 10:03:42;;;;;;;4.50;3.70;;;;;;;13.25;44.05;64344.91;5033462;28;20205;-60
2023/03/18 10:06:16;;;;;;;6.03;3.60;;;;;;;13.47;44.48;64371.56;5033291;28;20206;-59
2023/03/18 10:09:05;;;;;;;5.30;4.70;;;;;;;13.68;44.52;64389.00;5033167;28;20292;-60
2023/03/18 10:11:43;;;;;;;8.50;3.90;;;;;;;14.07;44.76;64434.38;5015371;28;20283;-56
2023/03/18 10:14:23;;;;;;;4.90;3.60;;;;;;;13.43;42.71;64362.66;5033363;28;20209;-59
2023/03/18 10:17:11;;;;;;;4.13;3.47;;;;;;;13.53;43.03;64372.53;5033255;28;20209;-60
2023/03/18 10:19:45;;;;;;;7.17;3.13;;;;;;;13.67;40.74;64387.91;5033302;28;20210;-59
2023/03/18 10:22:32;;;;;;;3.07;2.67;;;;;;;13.94;42.27;64417.56;5015431;28;20190;-56
2023/03/18 10:25:05;;;;;;;4.37;3.27;;;;;;;14.33;41.05;64460.41;5033028;28;20202;-56
2023/03/18 10:27:48;;;;;;;4.20;3.03;;;;;;;14.73;39.62;64504.38;5015309;28;20194;-56
2023/03/18 10:30:29;;;;;;;3.37;2.73;;;;;;;14.77;37.76;64510.75;5033028;28;20600;-59
2023/03/18 10:33:06;;;;;;;4.13;3.10;;;;;;;14.61;37.63;64493.16;5033354;28;20207;-59
2023/03/18 10:35:47;;;;;;;5.53;3.60;;;;;;;14.87;37.20;64519.19;5032859;28;20294;-58
2023/03/18 10:38:30;;;;;;;3.67;2.80;;;;;;;15.14;37.61;64552.00;5032858;28;20677;-56
2023/03/18 10:40:57;;;;;;;8.77;5.03;;;;;;;15.46;38.08;64584.09;5032981;28;20198;-56
2023/03/18 10:43:29;;;;;;;5.40;3.00;;;;;;;15.71;36.93;64611.63;5033038;28;20265;-59
2023/03/18 10:46:03;;;;;;;4.45;2.95;;;;;;;16.07;36.44;64647.56;5032726;28;20194;-59
2023/03/18 10:48:49;;;;;;;4.20;3.17;;;;;;;16.34;35.04;64679.84;5032617;28;20284;-60
2023/03/18 10:51:46;;;;;;;3.90;3.22;;;;;;;15.61;35.38;64600.06;5032712;28;20190;-59
2023/03/18 10:54:22;;;;;;;3.28;2.22;;;;;;;15.58;35.31;64599.84;5014922;28;20217;-56
2023/03/18 10:56:47;;;;;;;5.65;3.10;;;;;;;15.03;35.47;64537.34;5032755;28;20371;-56
2023/03/18 10:59:17;;;;;;;6.25;3.38;;;;;;;15.09;35.24;64543.38;5032518;28;20205;-56
2023/03/18 11:01:50;;;;;;;3.72;2.83;;;;;;;14.70;36.45;64503.06;5032336;28;20567;-56
2023/03/18 11:04:20;;;;;;;2.77;2.53;;;;;;;14.28;35.99;64454.94;5032467;28;20229;-56
2023/03/18 11:06:58;;;;;;;2.60;2.20;;;;;;;13.54;35.49;64376.72;5032844;28;20680;-61
2023/03/18 11:09:36;;;;;;;3.60;2.43;;;;;;;13.06;35.69;64324.59;5032505;28;20691;-62
2023/03/18 11:12:13;;;;;;;3.13;2.77;;;;;;;12.74;37.53;64286.38;5032691;28;20204;-56
2023/03/18 11:14:39;;;;;;;3.13;2.70;;;;;;;12.58;37.74;64269.38;5032478;28;20281;-59
2023/03/18 11:17:28;;;;;;;2.87;2.47;;;;;;;12.30;38.28;64241.75;5032609;28;20264;-58
2023/03/18 11:20:18;;;;;;;3.07;2.77;;;;;;;12.10;38.38;64222.34;5032633;28;20209;-61
2023/03/18 11:22:46;;;;;;;4.37;2.20;;;;;;;12.41;38.08;64255.78;5032661;28;20202;-61
2023/03/18 11:25:25;;;;;;;6.07;2.60;;;;;;;13.27;37.89;64347.63;5032065;28;20232;-59
2023/03/18 11:28:27;;;;;;;3.50;2.40;;;;;;;13.90;37.09;64415.69;5032285;28;20190;-59
2023/03/18 11:30:59;;;;;;;3.67;2.30;;;;;;;13.90;36.72;64413.16;5028275;28;20228;-56
2023/03/18 11:33:31;;;;;;;3.17;2.60;;;;;;;14.37;36.78;64461.72;5032130;28;20223;-54
2023/03/18 11:35:59;;;;;;;4.93;2.50;;;;;;;14.45;35.22;64478.69;5032215;28;20202;-57
2023/03/18 11:38:28;;;;;;;4.63;2.40;;;;;;;14.07;35.71;64431.84;5031890;28;20186;-56
2023/03/18 11:41:21;;;;;;;2.57;2.37;;;;;;;13.70;36.51;64394.28;5014131;28;20235;-61